createdAt,value
2019-01-23T00:02:24.986Z,56.25
2019-01-23T00:04:52.738Z,56.55
2019-01-23T00:07:20.637Z,67.72
2019-01-23T00:09:48.733Z,60.17
2019-01-23T00:12:17.067Z,59.80
2019-01-23T00:14:45.174Z,57.05
2019-01-23T00:17:13.402Z,60.20
2019-01-23T00:19:41.311Z,65.12
2019-01-23T00:22:08.898Z,57.85
2019-01-23T00:24:37.136Z,64.00
2019-01-23T00:27:05.096Z,56.40
2019-01-23T00:29:33.450Z,53.80
2019-01-23T00:32:02.018Z,55.83
2019-01-23T00:34:30.218Z,70.85
2019-01-23T00:36:58.323Z,53.70
2019-01-23T00:39:26.743Z,57.25
2019-01-23T00:41:54.659Z,59.67
2019-01-23T00:44:22.511Z,61.55
2019-01-23T00:46:51.111Z,63.75
2019-01-23T00:49:19.338Z,57.08
2019-01-23T00:51:47.871Z,55.20
2019-01-23T00:54:15.823Z,59.48
2019-01-23T00:56:44.030Z,53.58
2019-01-23T00:59:11.521Z,104.38
2019-01-23T01:01:39.640Z,121.95
2019-01-23T01:04:07.569Z,83.90
2019-01-23T01:06:35.392Z,106.75
2019-01-23T01:09:05.210Z,77.32
2019-01-23T01:11:33.587Z,62.45
2019-01-23T01:14:01.439Z,61.88
2019-01-23T01:16:29.638Z,67.25
2019-01-23T01:18:58.455Z,68.87
2019-01-23T01:21:26.362Z,61.30
2019-01-23T01:23:54.407Z,57.23
2019-01-23T01:26:21.960Z,62.90
2019-01-23T01:28:55.844Z,67.20
2019-01-23T01:31:20.238Z,56.68
2019-01-23T01:33:47.967Z,59.23
2019-01-23T01:36:15.558Z,65.57
2019-01-23T01:38:43.607Z,64.62
2019-01-23T01:41:12.235Z,61.20
2019-01-23T01:43:39.857Z,61.73
2019-01-23T01:46:08.387Z,64.03
2019-01-23T01:48:35.958Z,59.80
2019-01-23T01:51:04.012Z,66.75
2019-01-23T01:53:32.345Z,59.90
2019-01-23T01:56:00.618Z,75.50
2019-01-23T01:58:28.468Z,110.08
2019-01-23T02:00:56.329Z,164.50
2019-01-23T02:03:24.547Z,127.20
2019-01-23T02:05:52.452Z,110.22
2019-01-23T02:08:20.476Z,98.12
2019-01-23T02:10:48.002Z,85.40
2019-01-23T02:13:15.563Z,66.35
2019-01-23T02:15:43.863Z,71.80
2019-01-23T02:18:11.853Z,68.10
2019-01-23T02:20:40.060Z,65.42
2019-01-23T02:23:07.874Z,81.20
2019-01-23T02:25:35.800Z,73.40
2019-01-23T02:28:04.143Z,71.40
2019-01-23T02:30:32.016Z,60.12
2019-01-23T02:32:59.625Z,74.65
2019-01-23T02:35:27.840Z,63.30
2019-01-23T02:37:55.438Z,68.30
2019-01-23T02:40:23.692Z,64.50
2019-01-23T02:42:52.118Z,63.52
2019-01-23T02:45:22.251Z,59.03
2019-01-23T02:47:51.136Z,67.00
2019-01-23T02:50:19.500Z,58.33
2019-01-23T02:52:47.484Z,61.33
2019-01-23T02:55:14.822Z,54.50
2019-01-23T02:57:43.253Z,75.72
2019-01-23T03:00:12.414Z,97.67
2019-01-23T03:02:40.279Z,94.85
2019-01-23T03:05:09.030Z,128.85
2019-01-23T03:07:36.600Z,106.85
2019-01-23T03:10:04.952Z,86.08
2019-01-23T03:12:33.154Z,70.22
2019-01-23T03:15:00.994Z,93.25
2019-01-23T03:17:28.799Z,66.45
2019-01-23T03:19:56.191Z,99.83
2019-01-23T03:22:23.699Z,62.60
2019-01-23T03:24:51.320Z,57.15
2019-01-23T03:27:18.947Z,57.48
2019-01-23T03:29:46.781Z,46.90
2019-01-23T03:32:14.781Z,58.33
2019-01-23T03:34:43.059Z,63.60
2019-01-23T03:37:10.924Z,54.20
2019-01-23T03:39:38.819Z,62.65
2019-01-23T03:42:08.999Z,58.60
2019-01-23T03:44:38.235Z,51.77
2019-01-23T03:47:05.611Z,52.88
2019-01-23T03:49:33.664Z,65.65
2019-01-23T03:52:01.988Z,55.55
2019-01-23T03:54:30.287Z,56.98
2019-01-23T03:56:57.851Z,68.65
2019-01-23T03:59:32.164Z,57.17
2019-01-23T04:01:56.060Z,64.50
2019-01-23T04:04:23.855Z,53.95
2019-01-23T04:06:51.168Z,52.15
2019-01-23T04:09:18.715Z,55.35
2019-01-23T04:11:46.944Z,50.50
2019-01-23T04:14:14.766Z,50.17
2019-01-23T04:16:42.664Z,55.85
2019-01-23T04:19:10.598Z,60.12
2019-01-23T04:21:38.240Z,53.20
2019-01-23T04:24:06.006Z,60.20
2019-01-23T04:26:34.263Z,52.58
2019-01-23T04:29:01.998Z,58.65
2019-01-23T04:31:30.450Z,54.40
2019-01-23T04:33:58.255Z,57.78
2019-01-23T04:36:26.105Z,61.83
2019-01-23T04:38:53.999Z,52.62
2019-01-23T04:41:21.508Z,49.58
2019-01-23T04:43:49.392Z,50.67
2019-01-23T04:46:17.333Z,55.43
2019-01-23T04:48:45.176Z,49.33
2019-01-23T04:51:32.683Z,47.20
2019-01-23T04:54:00.824Z,52.85
2019-01-23T04:56:28.736Z,48.02
2019-01-23T04:58:56.758Z,45.40
2019-01-23T05:01:24.877Z,51.45
2019-01-23T05:03:52.946Z,49.05
2019-01-23T05:06:20.919Z,47.85
2019-01-23T05:08:49.079Z,52.70
2019-01-23T05:11:17.308Z,46.83
2019-01-23T05:13:45.821Z,52.17
2019-01-23T05:16:13.666Z,61.88
2019-01-23T05:18:41.610Z,49.63
2019-01-23T05:21:09.480Z,97.78
2019-01-23T05:23:37.314Z,81.82
2019-01-23T05:26:05.293Z,50.25
2019-01-23T05:28:32.879Z,54.55
2019-01-23T05:31:01.445Z,50.92
2019-01-23T05:33:29.413Z,46.80
2019-01-23T05:35:57.374Z,46.08
2019-01-23T05:38:25.935Z,49.03
2019-01-23T05:40:53.989Z,56.53
2019-01-23T05:43:22.283Z,52.48
2019-01-23T05:45:50.781Z,96.10
2019-01-23T05:48:18.244Z,126.62
2019-01-23T05:50:45.830Z,90.05
2019-01-23T05:53:13.630Z,112.17
2019-01-23T05:55:41.540Z,53.17
2019-01-23T05:58:10.222Z,67.90
2019-01-23T06:00:38.185Z,68.90
2019-01-23T06:03:05.686Z,59.85
2019-01-23T06:05:33.584Z,50.05
2019-01-23T06:08:01.734Z,52.25
2019-01-23T06:10:29.620Z,70.08
2019-01-23T06:12:57.526Z,72.78
2019-01-23T06:15:25.638Z,45.12
2019-01-23T06:17:53.948Z,54.30
2019-01-23T06:20:22.020Z,53.83
2019-01-23T06:22:50.104Z,49.80
2019-01-23T06:25:17.967Z,47.55
2019-01-23T06:27:45.912Z,48.98
2019-01-23T06:30:16.229Z,65.50
2019-01-23T06:32:44.017Z,58.48
2019-01-23T06:35:12.051Z,56.85
2019-01-23T06:37:40.347Z,74.70
2019-01-23T06:40:09.684Z,73.62
2019-01-23T06:42:37.947Z,74.92
2019-01-23T06:45:06.343Z,71.47
2019-01-23T06:47:34.215Z,70.42
2019-01-23T06:50:02.424Z,109.57
2019-01-23T06:52:29.971Z,112.45
2019-01-23T06:54:57.859Z,84.50
2019-01-23T06:57:28.599Z,87.90
2019-01-23T06:59:56.207Z,101.50
2019-01-23T07:02:24.057Z,74.65
2019-01-23T07:04:51.930Z,76.72
2019-01-23T07:07:19.900Z,76.55
2019-01-23T07:09:47.781Z,124.15
2019-01-23T07:12:16.152Z,133.18
2019-01-23T07:14:44.136Z,87.12
2019-01-23T07:17:11.848Z,87.95
2019-01-23T07:19:39.986Z,63.13
2019-01-23T07:22:08.289Z,56.37
2019-01-23T07:24:35.843Z,62.03
2019-01-23T07:27:03.619Z,66.85
2019-01-23T07:29:31.316Z,66.47
2019-01-23T07:31:59.441Z,116.20
2019-01-23T07:34:26.986Z,73.15
2019-01-23T07:36:55.166Z,58.55
2019-01-23T07:39:23.073Z,78.60
2019-01-23T07:41:50.948Z,64.42
2019-01-23T07:44:19.053Z,55.00
2019-01-23T07:46:47.356Z,61.02
2019-01-23T07:49:15.180Z,57.05
2019-01-23T07:51:43.510Z,57.27
2019-01-23T07:54:11.493Z,54.70
2019-01-23T07:56:39.087Z,51.08
2019-01-23T07:59:07.015Z,56.10
2019-01-23T08:01:34.908Z,55.73
2019-01-23T08:04:03.143Z,64.97
2019-01-23T08:06:31.464Z,67.47
2019-01-23T08:08:59.203Z,54.67
2019-01-23T08:11:27.298Z,54.90
2019-01-23T08:13:55.849Z,65.83
2019-01-23T08:16:23.519Z,49.05
2019-01-23T08:18:51.429Z,89.85
2019-01-23T08:21:18.738Z,70.32
2019-01-23T08:23:46.293Z,99.92
2019-01-23T08:26:14.243Z,86.95
2019-01-23T08:28:42.149Z,45.85
2019-01-23T08:31:09.901Z,52.78
2019-01-23T08:33:37.846Z,53.83
2019-01-23T08:36:07.038Z,53.70
2019-01-23T08:38:35.250Z,61.20
2019-01-23T08:41:03.123Z,53.45
2019-01-23T08:43:31.248Z,54.38
2019-01-23T08:45:58.835Z,56.10
2019-01-23T08:48:26.718Z,47.50
2019-01-23T08:50:55.286Z,47.00
2019-01-23T08:53:23.930Z,45.45
2019-01-23T08:55:53.753Z,44.83
2019-01-23T08:58:22.333Z,49.83
2019-01-23T09:00:49.832Z,55.67
2019-01-23T09:03:17.496Z,52.40
2019-01-23T09:05:45.335Z,109.85
2019-01-23T09:08:13.210Z,70.85
2019-01-23T09:10:41.191Z,52.48
2019-01-23T09:13:09.729Z,41.73
2019-01-23T09:15:37.732Z,41.55
2019-01-23T09:18:07.066Z,47.73
2019-01-23T09:20:35.183Z,49.27
2019-01-23T09:23:02.781Z,51.88
2019-01-23T09:25:31.027Z,72.50
2019-01-23T09:27:58.696Z,113.35
2019-01-23T09:30:27.858Z,108.97
2019-01-23T09:33:01.976Z,72.42
2019-01-23T09:35:52.426Z,73.07
2019-01-23T09:38:45.656Z,84.47
2019-01-23T09:41:17.257Z,56.75
2019-01-23T09:43:54.604Z,55.55
2019-01-23T09:46:47.518Z,53.05
2019-01-23T09:49:38.069Z,52.00
2019-01-23T09:52:28.457Z,51.10
2019-01-23T09:54:58.753Z,47.62
2019-01-23T09:57:26.598Z,52.43
2019-01-23T09:59:54.667Z,49.05
2019-01-23T10:02:22.296Z,49.35
2019-01-23T10:04:50.115Z,58.90
2019-01-23T10:07:19.299Z,56.13
2019-01-23T10:09:47.945Z,56.05
2019-01-23T10:12:16.052Z,55.00
2019-01-23T10:14:44.041Z,59.63
2019-01-23T10:17:12.047Z,57.38
2019-01-23T10:19:40.395Z,61.48
2019-01-23T10:22:08.168Z,56.80
2019-01-23T10:24:36.266Z,55.95
2019-01-23T10:27:07.010Z,54.40
2019-01-23T10:29:35.266Z,72.87
2019-01-23T10:32:03.401Z,111.25
2019-01-23T10:34:32.443Z,111.97
2019-01-23T10:37:00.749Z,90.10
2019-01-23T10:39:28.545Z,124.38
2019-01-23T10:41:56.750Z,53.75
2019-01-23T10:44:24.040Z,62.62
2019-01-23T10:46:52.659Z,62.80
2019-01-23T10:49:20.627Z,54.95
2019-01-23T10:51:48.499Z,100.78
2019-01-23T10:54:16.347Z,68.65
2019-01-23T10:56:44.460Z,101.72
2019-01-23T10:59:12.662Z,60.58
2019-01-23T11:01:40.148Z,69.67
2019-01-23T11:04:08.216Z,80.12
2019-01-23T11:06:35.847Z,67.65
2019-01-23T11:09:05.877Z,74.35
2019-01-23T11:11:33.536Z,66.70
2019-01-23T11:14:01.426Z,66.17
2019-01-23T11:16:30.675Z,56.33
2019-01-23T11:18:58.937Z,60.45
2019-01-23T11:21:26.425Z,81.00
2019-01-23T11:23:54.167Z,79.35
2019-01-23T11:26:22.087Z,71.82
2019-01-23T11:28:52.161Z,107.52
2019-01-23T11:31:20.442Z,65.90
2019-01-23T11:36:33.614Z,52.85
2019-01-23T11:39:01.625Z,62.78
2019-01-23T11:41:29.767Z,70.87
2019-01-23T11:43:58.346Z,64.25
2019-01-23T11:46:27.296Z,67.60
2019-01-23T11:48:55.458Z,60.50
2019-01-23T11:51:24.527Z,52.60
2019-01-23T11:53:53.834Z,53.02
2019-01-23T11:56:22.705Z,58.65
2019-01-23T11:58:52.784Z,57.58
2019-01-23T12:01:27.321Z,57.35
2019-01-23T12:03:51.916Z,56.98
2019-01-23T12:06:20.156Z,61.08
2019-01-23T12:08:48.351Z,48.40
2019-01-23T12:11:17.389Z,55.50
2019-01-23T12:13:45.541Z,55.78
2019-01-23T12:16:15.188Z,68.90
2019-01-23T12:18:47.509Z,50.83
2019-01-23T12:21:17.572Z,62.80
2019-01-23T12:23:45.708Z,61.88
2019-01-23T12:26:14.514Z,68.33
2019-01-23T12:28:44.200Z,53.58
2019-01-23T12:31:13.297Z,51.30
2019-01-23T12:33:41.711Z,55.28
2019-01-23T12:36:09.901Z,50.88
2019-01-23T12:38:37.934Z,56.02
2019-01-23T12:41:06.890Z,59.88
2019-01-23T12:43:36.965Z,59.85
2019-01-23T12:46:11.408Z,55.38
2019-01-23T12:48:39.658Z,64.55
2019-01-23T12:51:07.555Z,61.60
2019-01-23T12:53:37.264Z,54.05
2019-01-23T12:56:06.714Z,47.75
2019-01-23T12:58:36.378Z,55.30
2019-01-23T13:01:06.681Z,60.28
2019-01-23T13:03:34.976Z,60.95
2019-01-23T13:06:03.863Z,67.40
2019-01-23T13:08:33.127Z,57.27
2019-01-23T13:11:01.283Z,68.55
2019-01-23T13:13:48.411Z,51.37
2019-01-23T13:16:16.245Z,54.20
2019-01-23T13:18:44.981Z,54.77
2019-01-23T13:21:12.651Z,58.33
2019-01-23T13:23:40.693Z,69.65
2019-01-23T13:26:09.035Z,54.23
2019-01-23T13:28:38.698Z,51.30
2019-01-23T13:31:06.576Z,59.45
2019-01-23T13:44:37.964Z,50.17
2019-01-23T13:47:07.155Z,56.63
2019-01-23T13:49:35.031Z,53.28
2019-01-23T13:52:22.001Z,59.93
2019-01-23T13:54:55.842Z,57.15
2019-01-23T13:57:24.953Z,51.35
2019-01-23T13:59:55.465Z,50.30
2019-01-23T14:02:29.731Z,56.63
2019-01-23T14:05:03.747Z,63.35
2019-01-23T14:07:33.561Z,53.63
2019-01-23T14:10:03.477Z,55.80
2019-01-23T14:12:39.440Z,53.85
2019-01-23T14:15:12.408Z,57.20
2019-01-23T14:17:41.236Z,47.50
2019-01-23T14:20:11.531Z,44.95
2019-01-23T14:22:39.912Z,55.00
2019-01-23T14:25:09.287Z,54.13
2019-01-23T14:27:37.741Z,56.75
2019-01-23T14:30:09.402Z,57.58
2019-01-23T14:32:43.375Z,58.65
2019-01-23T14:35:14.444Z,60.20
2019-01-23T14:37:53.000Z,56.15
2019-01-23T14:40:20.335Z,55.38
2019-01-23T14:42:48.255Z,108.37
2019-01-23T14:45:16.333Z,60.25
2019-01-23T14:47:44.734Z,53.23
2019-01-23T14:50:14.372Z,52.62
2019-01-23T14:52:43.151Z,56.45
2019-01-23T14:55:11.648Z,57.70
2019-01-23T14:57:40.099Z,54.20
2019-01-23T15:00:15.625Z,54.33
2019-01-23T15:02:43.190Z,55.00
2019-01-23T15:05:12.859Z,54.95
2019-01-23T15:07:41.513Z,50.58
2019-01-23T15:10:12.155Z,56.60
2019-01-23T15:12:41.613Z,52.48
2019-01-23T15:15:11.935Z,51.75
2019-01-23T15:17:40.738Z,52.25
2019-01-23T15:20:31.385Z,61.00
2019-01-23T15:23:01.875Z,53.50
2019-01-23T15:25:31.957Z,45.78
2019-01-23T15:28:00.852Z,50.52
2019-01-23T15:30:30.167Z,60.40
2019-01-23T15:32:59.386Z,54.75
2019-01-23T15:35:29.132Z,57.73
2019-01-23T15:37:57.963Z,54.73
2019-01-23T15:40:28.319Z,51.50
2019-01-23T15:42:57.264Z,46.68
2019-01-23T15:45:26.123Z,54.73
2019-01-23T15:47:53.550Z,61.95
2019-01-23T15:50:23.189Z,46.15
2019-01-23T15:52:51.404Z,53.40
2019-01-23T15:55:21.044Z,58.42
2019-01-23T15:57:49.795Z,64.53
2019-01-23T16:00:27.809Z,57.40
2019-01-23T16:02:58.139Z,64.00
2019-01-23T16:05:27.019Z,52.05
2019-01-23T16:07:55.370Z,53.00
2019-01-23T16:10:24.632Z,50.43
2019-01-23T16:12:53.293Z,50.55
2019-01-23T16:15:23.300Z,54.73
2019-01-23T16:17:52.190Z,52.55
2019-01-23T16:20:19.963Z,48.73
2019-01-23T16:22:47.847Z,47.60
2019-01-23T16:25:16.168Z,52.15
2019-01-23T16:27:45.128Z,55.63
2019-01-23T16:30:22.776Z,47.53
2019-01-23T16:32:51.632Z,57.38
2019-01-23T16:35:21.237Z,56.80
2019-01-23T16:37:49.553Z,47.10
2019-01-23T16:40:18.068Z,59.45
2019-01-23T16:42:46.270Z,61.55
2019-01-23T16:45:15.648Z,54.15
2019-01-23T16:47:45.701Z,51.00
2019-01-23T16:50:16.580Z,49.33
2019-01-23T16:52:44.829Z,54.05
2019-01-23T16:55:12.886Z,45.67
2019-01-23T16:57:41.518Z,45.35
2019-01-23T17:00:14.966Z,47.27
2019-01-23T17:02:50.494Z,50.08
2019-01-23T17:05:22.263Z,55.83
2019-01-23T17:07:50.448Z,60.98
2019-01-23T17:10:22.511Z,44.98
2019-01-23T17:12:50.819Z,46.73
2019-01-23T17:15:19.336Z,56.63
2019-01-23T17:17:47.251Z,49.93
2019-01-23T17:20:21.123Z,48.63
2019-01-23T17:22:48.563Z,55.55
2019-01-23T17:25:16.961Z,53.00
2019-01-23T17:27:45.020Z,52.73
2019-01-23T17:30:14.364Z,44.25
2019-01-23T17:32:45.799Z,53.52
2019-01-23T17:35:14.799Z,46.90
2019-01-23T17:37:42.992Z,55.05
2019-01-23T17:40:12.832Z,49.73
2019-01-23T17:42:40.999Z,52.73
2019-01-23T17:45:16.903Z,45.75
2019-01-23T17:47:45.328Z,52.95
2019-01-23T17:50:15.237Z,52.55
2019-01-23T17:52:44.053Z,43.70
2019-01-23T17:55:15.937Z,46.48
2019-01-23T17:57:44.438Z,51.40
2019-01-23T18:00:17.332Z,47.53
2019-01-23T18:02:52.895Z,47.62
2019-01-23T18:05:21.040Z,52.83
2019-01-23T18:07:50.303Z,48.05
2019-01-23T18:10:18.107Z,41.68
2019-01-23T18:12:46.831Z,57.88
2019-01-23T18:15:16.465Z,46.68
2019-01-23T18:17:45.034Z,55.98
2019-01-23T18:20:18.488Z,45.45
2019-01-23T18:22:47.290Z,51.60
2019-01-23T18:25:16.128Z,52.85
2019-01-23T18:27:44.324Z,46.13
2019-01-23T18:30:20.831Z,48.25
2019-01-23T18:32:49.160Z,54.83
2019-01-23T18:35:28.564Z,47.48
2019-01-23T18:38:30.191Z,50.05
2019-01-23T18:41:35.887Z,50.43
2019-01-23T18:44:31.826Z,54.35
2019-01-23T18:47:36.684Z,48.25
2019-01-23T18:50:53.510Z,53.17
2019-01-23T18:53:22.487Z,47.98
2019-01-23T18:55:51.091Z,44.08
2019-01-23T18:58:18.965Z,50.55
2019-01-23T19:00:48.267Z,53.60
2019-01-23T19:03:16.577Z,44.80
2019-01-23T19:05:44.989Z,55.92
2019-01-23T19:08:13.712Z,56.40
2019-01-23T19:10:43.053Z,48.78
2019-01-23T19:13:12.642Z,54.53
2019-01-23T19:15:40.670Z,52.65
2019-01-23T19:18:09.278Z,48.92
2019-01-23T19:20:37.179Z,49.08
2019-01-23T19:23:05.299Z,53.10
2019-01-23T19:25:33.472Z,49.05
2019-01-23T19:28:01.854Z,52.62
2019-01-23T19:30:30.245Z,48.95
2019-01-23T19:32:59.135Z,42.98
2019-01-23T19:35:27.467Z,46.25
2019-01-23T19:37:56.814Z,49.42
2019-01-23T19:40:25.994Z,41.63
2019-01-23T19:42:55.803Z,47.35
2019-01-23T19:45:24.411Z,40.33
2019-01-23T19:47:52.669Z,40.83
2019-01-23T19:50:21.929Z,36.23
2019-01-23T19:52:50.020Z,45.67
2019-01-23T19:55:18.839Z,52.00
2019-01-23T19:57:47.028Z,48.60
2019-01-23T20:00:22.427Z,47.65
2019-01-23T20:02:50.225Z,44.60
2019-01-23T20:05:24.424Z,49.65
2019-01-23T20:07:52.933Z,47.95
2019-01-23T20:10:22.417Z,50.30
2019-01-23T20:12:50.924Z,52.58
2019-01-23T20:15:20.968Z,43.80
2019-01-23T20:17:50.003Z,49.30
2019-01-23T20:20:18.702Z,57.93
2019-01-23T20:22:46.797Z,60.85
2019-01-23T20:25:18.783Z,49.42
2019-01-23T20:27:47.787Z,43.92
2019-01-23T20:30:18.873Z,58.35
2019-01-23T20:32:47.134Z,58.38
2019-01-23T20:35:15.237Z,48.30
2019-01-23T20:37:50.470Z,48.75
2019-01-23T20:40:20.383Z,50.50
2019-01-23T20:42:49.266Z,54.38
2019-01-23T20:45:17.049Z,47.80
2019-01-23T20:47:46.989Z,52.03
2019-01-23T20:50:18.390Z,52.80
2019-01-23T20:52:47.180Z,57.60
2019-01-23T20:55:15.458Z,55.43
2019-01-23T20:57:43.782Z,51.77
2019-01-23T21:00:17.333Z,55.45
2019-01-23T21:02:46.295Z,51.75
2019-01-23T21:05:14.081Z,50.20
2019-01-23T21:07:44.285Z,45.05
2019-01-23T21:10:13.195Z,42.25
2019-01-23T21:12:41.453Z,51.08
2019-01-23T21:15:14.675Z,44.83
2019-01-23T21:17:43.293Z,51.23
2019-01-23T21:20:12.108Z,52.75
2019-01-23T21:22:39.956Z,50.03
2019-01-23T21:25:08.719Z,53.73
2019-01-23T21:27:36.884Z,51.08
2019-01-23T21:30:07.058Z,59.42
2019-01-23T21:32:35.140Z,58.83
2019-01-23T21:35:08.069Z,45.35
2019-01-23T21:37:37.091Z,49.23
2019-01-23T21:40:08.504Z,60.10
2019-01-23T21:42:38.580Z,55.95
2019-01-23T21:45:08.785Z,51.53
2019-01-23T21:47:37.619Z,56.95
2019-01-23T21:50:07.899Z,55.55
2019-01-23T21:52:35.944Z,55.17
2019-01-23T21:55:05.970Z,50.35
2019-01-23T21:57:34.668Z,55.40
2019-01-23T22:00:04.482Z,57.43
2019-01-23T22:02:41.214Z,76.82
2019-01-23T22:05:10.120Z,64.62
2019-01-23T22:07:38.381Z,58.90
2019-01-23T22:10:07.693Z,53.48
2019-01-23T22:12:40.181Z,52.62
2019-01-23T22:15:20.961Z,49.25
2019-01-23T22:17:56.808Z,48.60
2019-01-23T22:20:51.850Z,54.53
2019-01-23T22:23:21.382Z,49.48
2019-01-23T22:25:49.365Z,51.85
2019-01-23T22:28:17.613Z,47.48
2019-01-23T22:30:45.671Z,46.80
2019-01-23T22:33:13.428Z,49.10
2019-01-23T22:35:41.465Z,45.25
2019-01-23T22:38:09.989Z,46.05
2019-01-23T22:40:39.570Z,50.88
2019-01-23T22:43:07.614Z,46.85
2019-01-23T22:45:37.616Z,52.30
2019-01-23T22:48:06.281Z,41.50
2019-01-23T22:50:34.550Z,51.00
2019-01-23T22:53:03.596Z,44.03
2019-01-23T22:55:32.817Z,53.75
2019-01-23T22:58:00.450Z,49.38
2019-01-23T23:01:07.247Z,51.95
2019-01-23T23:03:35.037Z,63.55
2019-01-23T23:06:02.974Z,51.65
2019-01-23T23:08:31.164Z,55.52
2019-01-23T23:10:59.523Z,48.10
2019-01-23T23:13:27.552Z,53.95
2019-01-23T23:15:55.576Z,54.60
2019-01-23T23:18:25.013Z,52.33
2019-01-23T23:21:12.094Z,48.68
2019-01-23T23:23:39.764Z,52.30
2019-01-23T23:26:08.215Z,52.60
2019-01-23T23:28:36.809Z,49.25
2019-01-23T23:31:04.655Z,63.73
2019-01-23T23:33:32.077Z,57.80
2019-01-23T23:36:01.159Z,52.20
2019-01-23T23:38:29.946Z,55.25
2019-01-23T23:40:58.009Z,52.08
2019-01-23T23:43:25.908Z,51.80
2019-01-23T23:45:54.055Z,50.90
2019-01-23T23:48:22.516Z,46.48
2019-01-23T23:50:51.049Z,50.33
2019-01-23T23:53:19.879Z,56.00
2019-01-23T23:55:48.354Z,46.73
2019-01-23T23:58:16.776Z,49.88
